PWSweather.com
Personal Weather Stations
Station Observations
NCCALABA57
The Farm, Calabash, NC 28467

The FarmCalabash, NC 28467

Lat: 33.9246539, Lon: -78.5696509

Elevation: 44

Station Type: Davis Vantage Pro 2

Latest ConditionsUpdated 4:00:01 PM EDT Friday, May 24, 2019
Currently Today's Max Today's Min Today's Average
Temperature 96.5°F35.8°C 96.8°F36.0°C 68.2°F20.1°C 79.7°F26.5°C
Dew Point 71.0°F21.7°C 75.4°F24.1°C 66.8°F19.3°C 70.6°F21.4°C
Winds 3.5 mph N5.6 kmh N 4.6 mph -7.4 kmh - - 1.4 mph 2.3 kmh
Wind Gusts 4.6 mph7.4 kmh 8.1 mph13.0 kmh - -
Humidity 44% 97% 44% 77%
Pressure 30.07 in1018.3 mb 30.20 in1022.7 mb 30.07 in1018.3 mb -
Hour Temp Dew Point Humidity Winds Wind Gusts Pressure Precip Precip Rate Daily Precip Total
04:00 PM 96.5°F35.8°C 71.0°F21.7°C 44% 3.5 mph N5.6 kmh N 4.6 mph7.4 kmh 30.07 in1018.3 mb - 0.00 in0.0 mm 0.00 in0.0 mm
03:30 PM 96.8°F36.0°C 71.3°F21.8°C 44% 2.3 mph N3.7 kmh N 4.6 mph7.4 kmh 30.08 in1018.6 mb - 0.00 in0.0 mm 0.00 in0.0 mm
03:00 PM 95.8°F35.4°C 71.0°F21.7°C 45% 2.3 mph NW3.7 kmh NW 3.5 mph5.6 kmh 30.09 in1019.0 mb - 0.00 in0.0 mm 0.00 in0.0 mm
02:30 PM 95.7°F35.4°C 71.6°F22.0°C 46% 3.5 mph N5.6 kmh N 8.1 mph13.0 kmh 30.09 in1019.0 mb - 0.00 in0.0 mm 0.00 in0.0 mm
02:00 PM 93.7°F34.3°C 71.1°F21.7°C 48% 1.2 mph W1.9 kmh W 3.5 mph5.6 kmh 30.10 in1019.3 mb - 0.00 in0.0 mm 0.00 in0.0 mm
01:30 PM 94.4°F34.7°C 71.7°F22.1°C 48% 3.5 mph ENE5.6 kmh ENE 4.6 mph7.4 kmh 30.12 in1020.0 mb - 0.00 in0.0 mm 0.00 in0.0 mm
01:00 PM 91.9°F33.3°C 73.4°F23.0°C 55% 4.6 mph N7.4 kmh N 6.9 mph11.1 kmh 30.13 in1020.3 mb - 0.00 in0.0 mm 0.00 in0.0 mm
12:30 PM 91.2°F32.9°C 74.3°F23.5°C 58% 2.3 mph WSW3.7 kmh WSW 2.3 mph3.7 kmh 30.14 in1020.7 mb - 0.00 in0.0 mm 0.00 in0.0 mm
12:00 PM 90.2°F32.3°C 75.4°F24.1°C 62% 2.3 mph W3.7 kmh W 3.5 mph5.6 kmh 30.14 in1020.7 mb - 0.00 in0.0 mm 0.00 in0.0 mm
11:30 AM 88.1°F31.2°C 73.4°F23.0°C 62% 2.3 mph S3.7 kmh S 4.6 mph7.4 kmh 30.15 in1021.0 mb - 0.00 in0.0 mm 0.00 in0.0 mm
11:00 AM 87.2°F30.7°C 73.5°F23.1°C 64% 2.3 mph NW3.7 kmh NW 5.8 mph9.3 kmh 30.16 in1021.3 mb - 0.00 in0.0 mm 0.00 in0.0 mm
10:30 AM 85.9°F29.9°C 73.2°F22.9°C 66% 2.3 mph N3.7 kmh N 2.3 mph3.7 kmh 30.16 in1021.3 mb - 0.00 in0.0 mm 0.00 in0.0 mm
10:00 AM 84.1°F28.9°C 73.6°F23.1°C 71% 1.2 mph N1.9 kmh N 3.5 mph5.6 kmh 30.17 in1021.7 mb - 0.00 in0.0 mm 0.00 in0.0 mm
09:30 AM 81.6°F27.6°C 72.9°F22.7°C 75% 2.3 mph W3.7 kmh W 3.5 mph5.6 kmh 30.17 in1021.7 mb - 0.00 in0.0 mm 0.00 in0.0 mm
09:00 AM 78.8°F26.0°C 72.4°F22.4°C 81% 1.2 mph ENE1.9 kmh ENE 2.3 mph3.7 kmh 30.17 in1021.7 mb - 0.00 in0.0 mm 0.00 in0.0 mm
08:30 AM 76.3°F24.6°C 71.5°F21.9°C 85% 2.3 mph W3.7 kmh W 2.3 mph3.7 kmh 30.17 in1021.7 mb - 0.00 in0.0 mm 0.00 in0.0 mm
08:00 AM 74.3°F23.5°C 71.5°F21.9°C 91% 1.2 mph SW1.9 kmh SW 4.6 mph7.4 kmh 30.17 in1021.7 mb - 0.00 in0.0 mm 0.00 in0.0 mm
07:30 AM 71.8°F22.1°C 70.3°F21.3°C 95% 1.2 mph WSW1.9 kmh WSW 2.3 mph3.7 kmh 30.17 in1021.7 mb - 0.00 in0.0 mm 0.00 in0.0 mm
07:00 AM 70.1°F21.2°C 69.2°F20.7°C 97% Calm Calm 1.2 mph1.9 kmh 30.17 in1021.7 mb - 0.00 in0.0 mm 0.00 in0.0 mm
06:30 AM 68.9°F20.5°C 68.0°F20.0°C 97% Calm Calm -- 30.16 in1021.3 mb - 0.00 in0.0 mm 0.00 in0.0 mm
06:00 AM 68.5°F20.3°C 67.3°F19.6°C 96% Calm Calm 1.2 mph1.9 kmh 30.16 in1021.3 mb - 0.00 in0.0 mm 0.00 in0.0 mm
05:30 AM 68.4°F20.2°C 67.3°F19.6°C 96% 1.2 mph E1.9 kmh E 1.2 mph1.9 kmh 30.16 in1021.3 mb - 0.00 in0.0 mm 0.00 in0.0 mm
05:00 AM 68.2°F20.1°C 67.0°F19.4°C 96% Calm Calm 1.2 mph1.9 kmh 30.15 in1021.0 mb - 0.00 in0.0 mm 0.00 in0.0 mm
04:30 AM 68.3°F20.2°C 66.8°F19.3°C 95% Calm Calm 1.2 mph1.9 kmh 30.15 in1021.0 mb - 0.00 in0.0 mm 0.00 in0.0 mm
04:00 AM 68.7°F20.4°C 67.2°F19.6°C 95% Calm Calm -- 30.16 in1021.3 mb - 0.00 in0.0 mm 0.00 in0.0 mm
03:30 AM 69.1°F20.6°C 67.3°F19.6°C 94% Calm Calm -- 30.16 in1021.3 mb - 0.00 in0.0 mm 0.00 in0.0 mm
03:00 AM 69.8°F21.0°C 68.0°F20.0°C 94% Calm Calm -- 30.16 in1021.3 mb - 0.00 in0.0 mm 0.00 in0.0 mm
02:30 AM 70.7°F21.5°C 68.6°F20.3°C 93% Calm Calm -- 30.16 in1021.3 mb - 0.00 in0.0 mm 0.00 in0.0 mm
02:00 AM 71.8°F22.1°C 69.0°F20.6°C 91% Calm Calm -- 30.17 in1021.7 mb - 0.00 in0.0 mm 0.00 in0.0 mm
01:30 AM 72.9°F22.7°C 69.5°F20.8°C 89% Calm Calm -- 30.18 in1022.0 mb - 0.00 in0.0 mm 0.00 in0.0 mm
01:00 AM 73.5°F23.1°C 69.7°F20.9°C 88% Calm Calm -- 30.18 in1022.0 mb - 0.00 in0.0 mm 0.00 in0.0 mm
12:30 AM 74.1°F23.4°C 70.0°F21.1°C 87% 1.2 mph SSE1.9 kmh SSE 2.3 mph3.7 kmh 30.19 in1022.4 mb - 0.00 in0.0 mm 0.00 in0.0 mm
12:00 AM 74.3°F23.5°C 70.5°F21.4°C 88% 1.2 mph SSE1.9 kmh SSE 5.8 mph9.3 kmh 30.20 in1022.7 mb - 0.00 in0.0 mm 0.00 in0.0 mm